sensor_id;sensor_type;location;lat;lon;timestamp;P1;durP1;ratioP1;P2;durP2;ratioP2
45198;SDS011;30941;46.422;18.772;2023-05-16T00:02:25;10.85;;;6.68;;
45198;SDS011;30941;46.422;18.772;2023-05-16T00:04:51;8.90;;;7.03;;
45198;SDS011;30941;46.422;18.772;2023-05-16T00:07:16;10.25;;;7.57;;
45198;SDS011;30941;46.422;18.772;2023-05-16T00:09:42;9.13;;;7.22;;
45198;SDS011;30941;46.422;18.772;2023-05-16T00:12:07;8.23;;;6.35;;
45198;SDS011;30941;46.422;18.772;2023-05-16T00:14:33;7.68;;;6.00;;
45198;SDS011;30941;46.422;18.772;2023-05-16T00:17:00;9.32;;;6.03;;
45198;SDS011;30941;46.422;18.772;2023-05-16T00:19:25;7.75;;;6.40;;
45198;SDS011;30941;46.422;18.772;2023-05-16T00:21:54;8.57;;;5.75;;
45198;SDS011;30941;46.422;18.772;2023-05-16T00:24:19;8.30;;;5.82;;
45198;SDS011;30941;46.422;18.772;2023-05-16T00:26:45;8.73;;;5.60;;
45198;SDS011;30941;46.422;18.772;2023-05-16T00:29:10;7.88;;;5.38;;
45198;SDS011;30941;46.422;18.772;2023-05-16T00:31:35;6.88;;;5.72;;
45198;SDS011;30941;46.422;18.772;2023-05-16T00:34:01;7.97;;;5.38;;
45198;SDS011;30941;46.422;18.772;2023-05-16T00:36:26;7.22;;;5.18;;
45198;SDS011;30941;46.422;18.772;2023-05-16T00:38:52;7.13;;;5.43;;
45198;SDS011;30941;46.422;18.772;2023-05-16T00:41:18;6.15;;;4.97;;
45198;SDS011;30941;46.422;18.772;2023-05-16T00:43:43;8.55;;;5.95;;
45198;SDS011;30941;46.422;18.772;2023-05-16T00:46:09;6.82;;;5.75;;
45198;SDS011;30941;46.422;18.772;2023-05-16T00:48:34;8.05;;;5.65;;
45198;SDS011;30941;46.422;18.772;2023-05-16T00:51:00;8.32;;;5.40;;
45198;SDS011;30941;46.422;18.772;2023-05-16T00:53:25;7.53;;;6.15;;
45198;SDS011;30941;46.422;18.772;2023-05-16T00:55:51;7.40;;;5.95;;
45198;SDS011;30941;46.422;18.772;2023-05-16T00:58:17;8.13;;;6.28;;
45198;SDS011;30941;46.422;18.772;2023-05-16T01:00:43;7.85;;;6.43;;
45198;SDS011;30941;46.422;18.772;2023-05-16T01:03:09;8.25;;;6.15;;
45198;SDS011;30941;46.422;18.772;2023-05-16T01:05:35;9.43;;;6.30;;
45198;SDS011;30941;46.422;18.772;2023-05-16T01:08:01;8.45;;;6.47;;
45198;SDS011;30941;46.422;18.772;2023-05-16T01:10:28;8.65;;;6.65;;
45198;SDS011;30941;46.422;18.772;2023-05-16T01:13:08;7.85;;;6.45;;
45198;SDS011;30941;46.422;18.772;2023-05-16T01:15:46;8.63;;;6.80;;
45198;SDS011;30941;46.422;18.772;2023-05-16T01:21:47;10.48;;;7.38;;
45198;SDS011;30941;46.422;18.772;2023-05-16T01:24:13;8.52;;;6.68;;
45198;SDS011;30941;46.422;18.772;2023-05-16T01:26:48;8.38;;;6.38;;
45198;SDS011;30941;46.422;18.772;2023-05-16T01:29:14;8.25;;;6.68;;
45198;SDS011;30941;46.422;18.772;2023-05-16T01:31:40;11.73;;;7.30;;
45198;SDS011;30941;46.422;18.772;2023-05-16T01:34:05;9.52;;;6.90;;
45198;SDS011;30941;46.422;18.772;2023-05-16T01:39:29;9.15;;;6.97;;
45198;SDS011;30941;46.422;18.772;2023-05-16T01:42:05;10.80;;;6.55;;
45198;SDS011;30941;46.422;18.772;2023-05-16T01:44:34;8.90;;;6.43;;
45198;SDS011;30941;46.422;18.772;2023-05-16T01:47:02;10.75;;;5.68;;
45198;SDS011;30941;46.422;18.772;2023-05-16T01:49:34;8.48;;;6.43;;
45198;SDS011;30941;46.422;18.772;2023-05-16T01:52:04;9.00;;;5.80;;
45198;SDS011;30941;46.422;18.772;2023-05-16T01:54:33;12.48;;;6.13;;
45198;SDS011;30941;46.422;18.772;2023-05-16T01:57:03;7.18;;;6.15;;
45198;SDS011;30941;46.422;18.772;2023-05-16T01:59:29;7.90;;;6.40;;
45198;SDS011;30941;46.422;18.772;2023-05-16T02:01:57;8.05;;;6.20;;
45198;SDS011;30941;46.422;18.772;2023-05-16T02:04:23;7.95;;;6.50;;
45198;SDS011;30941;46.422;18.772;2023-05-16T02:06:49;9.98;;;5.85;;
45198;SDS011;30941;46.422;18.772;2023-05-16T02:09:15;9.48;;;6.38;;
45198;SDS011;30941;46.422;18.772;2023-05-16T02:11:40;9.60;;;6.03;;
45198;SDS011;30941;46.422;18.772;2023-05-16T02:14:05;7.13;;;5.63;;
45198;SDS011;30941;46.422;18.772;2023-05-16T02:16:32;7.00;;;5.50;;
45198;SDS011;30941;46.422;18.772;2023-05-16T02:18:58;9.30;;;5.63;;
45198;SDS011;30941;46.422;18.772;2023-05-16T02:21:23;8.70;;;6.18;;
45198;SDS011;30941;46.422;18.772;2023-05-16T02:23:49;8.20;;;6.10;;
45198;SDS011;30941;46.422;18.772;2023-05-16T02:26:14;9.45;;;6.40;;
45198;SDS011;30941;46.422;18.772;2023-05-16T02:28:40;8.65;;;6.43;;
45198;SDS011;30941;46.422;18.772;2023-05-16T02:31:05;9.77;;;6.57;;
45198;SDS011;30941;46.422;18.772;2023-05-16T02:33:31;10.13;;;7.35;;
45198;SDS011;30941;46.422;18.772;2023-05-16T02:35:56;10.00;;;6.82;;
45198;SDS011;30941;46.422;18.772;2023-05-16T02:38:21;8.80;;;6.80;;
45198;SDS011;30941;46.422;18.772;2023-05-16T02:40:47;12.88;;;7.68;;
45198;SDS011;30941;46.422;18.772;2023-05-16T02:43:12;9.27;;;6.97;;
45198;SDS011;30941;46.422;18.772;2023-05-16T02:45:38;9.52;;;7.18;;
45198;SDS011;30941;46.422;18.772;2023-05-16T02:48:03;11.35;;;7.53;;
45198;SDS011;30941;46.422;18.772;2023-05-16T02:50:29;10.93;;;7.03;;
45198;SDS011;30941;46.422;18.772;2023-05-16T02:52:55;9.13;;;6.90;;
45198;SDS011;30941;46.422;18.772;2023-05-16T02:55:21;9.50;;;6.50;;
45198;SDS011;30941;46.422;18.772;2023-05-16T02:57:46;10.27;;;6.63;;
45198;SDS011;30941;46.422;18.772;2023-05-16T03:00:12;10.40;;;7.03;;
45198;SDS011;30941;46.422;18.772;2023-05-16T03:02:38;8.23;;;5.95;;
45198;SDS011;30941;46.422;18.772;2023-05-16T03:05:03;10.88;;;6.40;;
45198;SDS011;30941;46.422;18.772;2023-05-16T03:07:30;8.43;;;5.90;;
45198;SDS011;30941;46.422;18.772;2023-05-16T03:09:55;9.02;;;6.32;;
45198;SDS011;30941;46.422;18.772;2023-05-16T03:12:21;8.38;;;6.05;;
45198;SDS011;30941;46.422;18.772;2023-05-16T03:14:46;6.57;;;5.25;;
45198;SDS011;30941;46.422;18.772;2023-05-16T03:17:11;8.13;;;5.47;;
45198;SDS011;30941;46.422;18.772;2023-05-16T03:19:37;7.05;;;4.50;;
45198;SDS011;30941;46.422;18.772;2023-05-16T03:22:02;6.57;;;5.05;;
45198;SDS011;30941;46.422;18.772;2023-05-16T03:24:28;6.75;;;4.20;;
45198;SDS011;30941;46.422;18.772;2023-05-16T03:26:53;6.00;;;4.72;;
45198;SDS011;30941;46.422;18.772;2023-05-16T03:29:19;6.85;;;4.60;;
45198;SDS011;30941;46.422;18.772;2023-05-16T03:31:44;5.75;;;4.43;;
45198;SDS011;30941;46.422;18.772;2023-05-16T03:34:10;7.72;;;4.45;;
45198;SDS011;30941;46.422;18.772;2023-05-16T03:36:35;6.63;;;4.13;;
45198;SDS011;30941;46.422;18.772;2023-05-16T03:39:02;7.07;;;4.90;;
45198;SDS011;30941;46.422;18.772;2023-05-16T03:41:28;6.43;;;4.25;;
45198;SDS011;30941;46.422;18.772;2023-05-16T03:43:53;5.82;;;3.65;;
45198;SDS011;30941;46.422;18.772;2023-05-16T03:46:18;6.40;;;3.90;;
45198;SDS011;30941;46.422;18.772;2023-05-16T03:48:44;4.78;;;3.50;;
45198;SDS011;30941;46.422;18.772;2023-05-16T03:51:09;5.03;;;3.70;;
45198;SDS011;30941;46.422;18.772;2023-05-16T03:53:35;6.68;;;4.00;;
45198;SDS011;30941;46.422;18.772;2023-05-16T03:56:01;8.52;;;3.75;;
45198;SDS011;30941;46.422;18.772;2023-05-16T03:58:27;4.40;;;3.30;;
45198;SDS011;30941;46.422;18.772;2023-05-16T04:00:53;4.65;;;3.65;;
45198;SDS011;30941;46.422;18.772;2023-05-16T04:03:18;5.05;;;3.50;;
45198;SDS011;30941;46.422;18.772;2023-05-16T04:05:44;4.80;;;3.50;;
45198;SDS011;30941;46.422;18.772;2023-05-16T04:08:10;4.20;;;3.05;;
45198;SDS011;30941;46.422;18.772;2023-05-16T04:10:35;6.10;;;3.42;;
45198;SDS011;30941;46.422;18.772;2023-05-16T04:13:00;4.60;;;3.35;;
45198;SDS011;30941;46.422;18.772;2023-05-16T04:15:26;6.45;;;3.40;;
45198;SDS011;30941;46.422;18.772;2023-05-16T04:17:51;6.30;;;3.40;;
45198;SDS011;30941;46.422;18.772;2023-05-16T04:20:17;4.72;;;3.20;;
45198;SDS011;30941;46.422;18.772;2023-05-16T04:22:42;5.45;;;3.60;;
45198;SDS011;30941;46.422;18.772;2023-05-16T04:25:07;5.43;;;3.72;;
45198;SDS011;30941;46.422;18.772;2023-05-16T04:27:33;5.20;;;3.55;;
45198;SDS011;30941;46.422;18.772;2023-05-16T04:29:59;5.65;;;3.25;;
45198;SDS011;30941;46.422;18.772;2023-05-16T04:32:24;4.72;;;3.30;;
45198;SDS011;30941;46.422;18.772;2023-05-16T04:34:52;6.47;;;3.83;;
45198;SDS011;30941;46.422;18.772;2023-05-16T04:37:18;6.72;;;3.60;;
45198;SDS011;30941;46.422;18.772;2023-05-16T04:39:44;7.30;;;4.43;;
45198;SDS011;30941;46.422;18.772;2023-05-16T04:42:10;4.95;;;3.95;;
45198;SDS011;30941;46.422;18.772;2023-05-16T04:44:36;5.50;;;4.30;;
45198;SDS011;30941;46.422;18.772;2023-05-16T04:47:01;5.80;;;4.18;;
45198;SDS011;30941;46.422;18.772;2023-05-16T04:49:26;6.43;;;4.10;;
45198;SDS011;30941;46.422;18.772;2023-05-16T04:51:52;6.10;;;4.15;;
45198;SDS011;30941;46.422;18.772;2023-05-16T04:54:18;6.45;;;4.15;;
45198;SDS011;30941;46.422;18.772;2023-05-16T04:56:43;8.35;;;4.15;;
45198;SDS011;30941;46.422;18.772;2023-05-16T04:59:09;8.38;;;4.78;;
45198;SDS011;30941;46.422;18.772;2023-05-16T05:01:34;6.93;;;5.55;;
45198;SDS011;30941;46.422;18.772;2023-05-16T05:03:59;7.40;;;5.43;;
45198;SDS011;30941;46.422;18.772;2023-05-16T05:06:25;8.20;;;5.63;;
45198;SDS011;30941;46.422;18.772;2023-05-16T05:08:50;14.57;;;8.43;;
45198;SDS011;30941;46.422;18.772;2023-05-16T05:11:16;10.30;;;6.70;;
45198;SDS011;30941;46.422;18.772;2023-05-16T05:13:41;10.00;;;6.47;;
45198;SDS011;30941;46.422;18.772;2023-05-16T05:16:06;8.88;;;6.38;;
45198;SDS011;30941;46.422;18.772;2023-05-16T05:18:32;9.13;;;7.25;;
45198;SDS011;30941;46.422;18.772;2023-05-16T05:20:58;11.80;;;6.95;;
45198;SDS011;30941;46.422;18.772;2023-05-16T05:23:24;10.40;;;7.60;;
45198;SDS011;30941;46.422;18.772;2023-05-16T05:25:49;10.32;;;7.40;;
45198;SDS011;30941;46.422;18.772;2023-05-16T05:28:15;10.68;;;7.43;;
45198;SDS011;30941;46.422;18.772;2023-05-16T05:30:41;10.18;;;7.20;;
45198;SDS011;30941;46.422;18.772;2023-05-16T05:33:06;15.30;;;8.27;;
45198;SDS011;30941;46.422;18.772;2023-05-16T05:35:31;11.05;;;8.25;;
45198;SDS011;30941;46.422;18.772;2023-05-16T05:37:57;14.80;;;8.73;;
45198;SDS011;30941;46.422;18.772;2023-05-16T05:40:22;13.05;;;9.63;;
45198;SDS011;30941;46.422;18.772;2023-05-16T05:42:48;14.57;;;9.63;;
45198;SDS011;30941;46.422;18.772;2023-05-16T05:45:13;10.80;;;7.88;;
45198;SDS011;30941;46.422;18.772;2023-05-16T05:47:39;11.95;;;8.88;;
45198;SDS011;30941;46.422;18.772;2023-05-16T05:50:05;12.77;;;8.30;;
45198;SDS011;30941;46.422;18.772;2023-05-16T05:52:31;11.68;;;8.82;;
45198;SDS011;30941;46.422;18.772;2023-05-16T05:54:57;12.95;;;9.60;;
45198;SDS011;30941;46.422;18.772;2023-05-16T05:57:23;11.13;;;8.45;;
45198;SDS011;30941;46.422;18.772;2023-05-16T05:59:48;13.40;;;9.55;;
45198;SDS011;30941;46.422;18.772;2023-05-16T06:02:14;12.35;;;8.80;;
45198;SDS011;30941;46.422;18.772;2023-05-16T06:04:39;12.73;;;9.75;;
45198;SDS011;30941;46.422;18.772;2023-05-16T06:07:06;13.48;;;8.55;;
45198;SDS011;30941;46.422;18.772;2023-05-16T06:09:32;12.73;;;8.65;;
45198;SDS011;30941;46.422;18.772;2023-05-16T06:11:57;13.57;;;9.35;;
45198;SDS011;30941;46.422;18.772;2023-05-16T06:14:24;12.07;;;8.15;;
45198;SDS011;30941;46.422;18.772;2023-05-16T06:16:49;11.70;;;8.40;;
45198;SDS011;30941;46.422;18.772;2023-05-16T06:19:15;13.23;;;9.02;;
45198;SDS011;30941;46.422;18.772;2023-05-16T06:21:41;11.68;;;8.10;;
45198;SDS011;30941;46.422;18.772;2023-05-16T06:24:07;11.35;;;8.60;;
45198;SDS011;30941;46.422;18.772;2023-05-16T06:26:32;12.07;;;8.60;;
45198;SDS011;30941;46.422;18.772;2023-05-16T06:28:58;11.32;;;8.20;;
45198;SDS011;30941;46.422;18.772;2023-05-16T06:31:23;11.07;;;8.18;;
45198;SDS011;30941;46.422;18.772;2023-05-16T06:33:49;12.07;;;7.95;;
45198;SDS011;30941;46.422;18.772;2023-05-16T06:36:14;9.88;;;7.13;;
45198;SDS011;30941;46.422;18.772;2023-05-16T06:38:40;9.75;;;7.30;;
45198;SDS011;30941;46.422;18.772;2023-05-16T06:41:05;10.00;;;7.40;;
45198;SDS011;30941;46.422;18.772;2023-05-16T06:43:30;9.80;;;7.05;;
45198;SDS011;30941;46.422;18.772;2023-05-16T06:45:56;12.07;;;7.72;;
45198;SDS011;30941;46.422;18.772;2023-05-16T06:48:21;10.93;;;7.32;;
45198;SDS011;30941;46.422;18.772;2023-05-16T06:50:49;18.38;;;10.05;;
45198;SDS011;30941;46.422;18.772;2023-05-16T06:53:16;16.35;;;10.00;;
45198;SDS011;30941;46.422;18.772;2023-05-16T06:55:42;11.95;;;8.05;;
45198;SDS011;30941;46.422;18.772;2023-05-16T06:58:07;11.32;;;8.18;;
45198;SDS011;30941;46.422;18.772;2023-05-16T07:00:33;12.90;;;8.23;;
45198;SDS011;30941;46.422;18.772;2023-05-16T07:02:58;10.95;;;7.25;;
45198;SDS011;30941;46.422;18.772;2023-05-16T07:05:23;9.98;;;7.43;;
45198;SDS011;30941;46.422;18.772;2023-05-16T07:07:49;14.38;;;8.75;;
45198;SDS011;30941;46.422;18.772;2023-05-16T07:10:14;10.68;;;6.97;;
45198;SDS011;30941;46.422;18.772;2023-05-16T07:12:40;13.00;;;7.80;;
45198;SDS011;30941;46.422;18.772;2023-05-16T07:15:07;10.35;;;7.45;;
45198;SDS011;30941;46.422;18.772;2023-05-16T07:17:32;10.88;;;7.28;;
45198;SDS011;30941;46.422;18.772;2023-05-16T07:19:58;11.00;;;7.40;;
45198;SDS011;30941;46.422;18.772;2023-05-16T07:22:23;9.23;;;7.32;;
45198;SDS011;30941;46.422;18.772;2023-05-16T07:24:48;10.88;;;7.72;;
45198;SDS011;30941;46.422;18.772;2023-05-16T07:27:17;10.40;;;8.30;;
45198;SDS011;30941;46.422;18.772;2023-05-16T07:29:42;10.55;;;7.13;;
45198;SDS011;30941;46.422;18.772;2023-05-16T07:32:08;10.07;;;7.90;;
45198;SDS011;30941;46.422;18.772;2023-05-16T07:34:33;9.82;;;7.47;;
45198;SDS011;30941;46.422;18.772;2023-05-16T07:36:59;10.15;;;7.35;;
45198;SDS011;30941;46.422;18.772;2023-05-16T07:39:24;11.68;;;7.95;;
45198;SDS011;30941;46.422;18.772;2023-05-16T07:41:50;10.05;;;7.10;;
45198;SDS011;30941;46.422;18.772;2023-05-16T07:44:15;11.13;;;7.82;;
45198;SDS011;30941;46.422;18.772;2023-05-16T07:46:41;11.73;;;7.85;;
45198;SDS011;30941;46.422;18.772;2023-05-16T07:49:08;11.32;;;8.38;;
45198;SDS011;30941;46.422;18.772;2023-05-16T07:51:34;9.73;;;8.32;;
45198;SDS011;30941;46.422;18.772;2023-05-16T07:54:00;9.27;;;7.70;;
45198;SDS011;30941;46.422;18.772;2023-05-16T07:56:25;10.27;;;8.00;;
45198;SDS011;30941;46.422;18.772;2023-05-16T07:58:51;11.88;;;8.40;;
45198;SDS011;30941;46.422;18.772;2023-05-16T08:01:17;11.07;;;7.97;;
45198;SDS011;30941;46.422;18.772;2023-05-16T08:03:42;9.48;;;7.18;;
45198;SDS011;30941;46.422;18.772;2023-05-16T08:06:08;9.63;;;7.57;;
45198;SDS011;30941;46.422;18.772;2023-05-16T08:08:33;13.10;;;8.23;;
45198;SDS011;30941;46.422;18.772;2023-05-16T08:10:59;10.82;;;7.85;;
45198;SDS011;30941;46.422;18.772;2023-05-16T08:13:24;9.38;;;8.38;;
45198;SDS011;30941;46.422;18.772;2023-05-16T08:15:53;11.57;;;8.00;;
45198;SDS011;30941;46.422;18.772;2023-05-16T08:18:18;11.48;;;8.65;;
45198;SDS011;30941;46.422;18.772;2023-05-16T08:20:43;8.48;;;7.38;;
45198;SDS011;30941;46.422;18.772;2023-05-16T08:23:09;8.52;;;7.45;;
45198;SDS011;30941;46.422;18.772;2023-05-16T08:25:34;9.73;;;7.70;;
45198;SDS011;30941;46.422;18.772;2023-05-16T08:28:00;10.75;;;7.35;;
45198;SDS011;30941;46.422;18.772;2023-05-16T08:30:28;12.05;;;7.47;;
45198;SDS011;30941;46.422;18.772;2023-05-16T08:32:53;9.40;;;8.40;;
45198;SDS011;30941;46.422;18.772;2023-05-16T08:35:19;13.25;;;8.32;;
45198;SDS011;30941;46.422;18.772;2023-05-16T08:37:44;11.48;;;8.38;;
45198;SDS011;30941;46.422;18.772;2023-05-16T08:40:10;10.00;;;7.47;;
45198;SDS011;30941;46.422;18.772;2023-05-16T08:42:36;10.35;;;7.90;;
45198;SDS011;30941;46.422;18.772;2023-05-16T08:45:02;10.45;;;7.78;;
45198;SDS011;30941;46.422;18.772;2023-05-16T08:47:29;10.38;;;8.38;;
45198;SDS011;30941;46.422;18.772;2023-05-16T08:49:56;9.98;;;8.40;;
45198;SDS011;30941;46.422;18.772;2023-05-16T08:52:22;13.73;;;8.57;;
45198;SDS011;30941;46.422;18.772;2023-05-16T08:54:52;10.95;;;9.18;;
45198;SDS011;30941;46.422;18.772;2023-05-16T08:57:19;10.55;;;8.68;;
45198;SDS011;30941;46.422;18.772;2023-05-16T08:59:44;12.63;;;9.00;;
45198;SDS011;30941;46.422;18.772;2023-05-16T09:02:10;10.90;;;8.98;;
45198;SDS011;30941;46.422;18.772;2023-05-16T09:04:36;11.50;;;9.35;;
45198;SDS011;30941;46.422;18.772;2023-05-16T09:07:02;11.00;;;8.70;;
45198;SDS011;30941;46.422;18.772;2023-05-16T09:09:28;11.70;;;8.98;;
45198;SDS011;30941;46.422;18.772;2023-05-16T09:11:54;10.82;;;9.30;;
45198;SDS011;30941;46.422;18.772;2023-05-16T09:14:20;10.82;;;8.80;;
45198;SDS011;30941;46.422;18.772;2023-05-16T09:16:54;12.93;;;8.95;;
45198;SDS011;30941;46.422;18.772;2023-05-16T09:19:31;11.55;;;9.55;;
45198;SDS011;30941;46.422;18.772;2023-05-16T09:22:04;13.43;;;9.68;;
45198;SDS011;30941;46.422;18.772;2023-05-16T09:24:31;15.65;;;10.25;;
45198;SDS011;30941;46.422;18.772;2023-05-16T09:26:57;11.73;;;9.07;;
45198;SDS011;30941;46.422;18.772;2023-05-16T09:29:33;14.45;;;9.65;;
45198;SDS011;30941;46.422;18.772;2023-05-16T09:32:03;13.57;;;9.80;;
45198;SDS011;30941;46.422;18.772;2023-05-16T09:34:30;13.02;;;10.68;;
45198;SDS011;30941;46.422;18.772;2023-05-16T09:36:55;12.40;;;10.23;;
45198;SDS011;30941;46.422;18.772;2023-05-16T09:39:20;10.77;;;8.93;;
45198;SDS011;30941;46.422;18.772;2023-05-16T09:41:48;13.55;;;8.50;;
45198;SDS011;30941;46.422;18.772;2023-05-16T09:44:17;10.40;;;8.13;;
45198;SDS011;30941;46.422;18.772;2023-05-16T09:46:42;11.93;;;8.25;;
45198;SDS011;30941;46.422;18.772;2023-05-16T09:49:10;14.45;;;8.75;;
45198;SDS011;30941;46.422;18.772;2023-05-16T09:51:36;13.02;;;8.43;;
45198;SDS011;30941;46.422;18.772;2023-05-16T09:54:06;12.18;;;8.73;;
45198;SDS011;30941;46.422;18.772;2023-05-16T09:56:32;12.77;;;7.95;;
45198;SDS011;30941;46.422;18.772;2023-05-16T09:58:57;13.07;;;8.13;;
45198;SDS011;30941;46.422;18.772;2023-05-16T10:01:22;12.50;;;8.57;;
45198;SDS011;30941;46.422;18.772;2023-05-16T10:03:49;11.95;;;8.18;;
45198;SDS011;30941;46.422;18.772;2023-05-16T10:06:14;13.43;;;9.07;;
45198;SDS011;30941;46.422;18.772;2023-05-16T10:08:41;14.38;;;8.57;;
45198;SDS011;30941;46.422;18.772;2023-05-16T10:11:07;15.35;;;8.15;;
45198;SDS011;30941;46.422;18.772;2023-05-16T10:13:34;12.30;;;8.73;;
45198;SDS011;30941;46.422;18.772;2023-05-16T10:16:02;11.77;;;8.30;;
45198;SDS011;30941;46.422;18.772;2023-05-16T10:18:31;15.10;;;8.85;;
45198;SDS011;30941;46.422;18.772;2023-05-16T10:21:03;10.55;;;7.97;;
45198;SDS011;30941;46.422;18.772;2023-05-16T10:23:30;16.17;;;8.50;;
45198;SDS011;30941;46.422;18.772;2023-05-16T10:26:00;14.10;;;8.60;;
45198;SDS011;30941;46.422;18.772;2023-05-16T10:28:27;12.02;;;8.48;;
45198;SDS011;30941;46.422;18.772;2023-05-16T10:30:53;13.75;;;8.38;;
45198;SDS011;30941;46.422;18.772;2023-05-16T10:33:19;12.90;;;8.43;;
45198;SDS011;30941;46.422;18.772;2023-05-16T10:35:45;15.18;;;8.50;;
45198;SDS011;30941;46.422;18.772;2023-05-16T10:38:11;13.57;;;7.47;;
45198;SDS011;30941;46.422;18.772;2023-05-16T10:40:38;12.93;;;8.70;;
45198;SDS011;30941;46.422;18.772;2023-05-16T10:43:05;12.80;;;7.72;;
45198;SDS011;30941;46.422;18.772;2023-05-16T10:45:32;13.38;;;8.38;;
45198;SDS011;30941;46.422;18.772;2023-05-16T10:47:58;11.02;;;7.78;;
45198;SDS011;30941;46.422;18.772;2023-05-16T10:50:41;9.65;;;7.10;;
45198;SDS011;30941;46.422;18.772;2023-05-16T10:53:18;11.02;;;7.50;;
45198;SDS011;30941;46.422;18.772;2023-05-16T11:04:00;11.98;;;7.55;;
45198;SDS011;30941;46.422;18.772;2023-05-16T11:06:33;15.68;;;7.40;;
45198;SDS011;30941;46.422;18.772;2023-05-16T11:16:48;18.58;;;8.32;;
45198;SDS011;30941;46.422;18.772;2023-05-16T11:19:18;11.52;;;7.55;;
45198;SDS011;30941;46.422;18.772;2023-05-16T11:22:13;14.82;;;7.85;;
45198;SDS011;30941;46.422;18.772;2023-05-16T11:29:54;10.30;;;7.20;;
45198;SDS011;30941;46.422;18.772;2023-05-16T11:32:23;13.20;;;7.57;;
45198;SDS011;30941;46.422;18.772;2023-05-16T11:34:49;10.60;;;7.00;;
45198;SDS011;30941;46.422;18.772;2023-05-16T11:37:16;12.52;;;7.15;;
45198;SDS011;30941;46.422;18.772;2023-05-16T11:39:42;11.82;;;8.00;;
45198;SDS011;30941;46.422;18.772;2023-05-16T11:42:08;14.77;;;8.23;;
45198;SDS011;30941;46.422;18.772;2023-05-16T11:44:34;13.63;;;7.25;;
45198;SDS011;30941;46.422;18.772;2023-05-16T11:46:59;11.52;;;7.43;;
45198;SDS011;30941;46.422;18.772;2023-05-16T11:49:26;13.20;;;7.40;;
45198;SDS011;30941;46.422;18.772;2023-05-16T11:51:52;13.85;;;7.20;;
45198;SDS011;30941;46.422;18.772;2023-05-16T11:54:18;14.32;;;7.57;;
45198;SDS011;30941;46.422;18.772;2023-05-16T11:56:44;10.85;;;6.30;;
45198;SDS011;30941;46.422;18.772;2023-05-16T11:59:09;11.85;;;6.90;;
45198;SDS011;30941;46.422;18.772;2023-05-16T12:01:35;11.25;;;6.93;;
45198;SDS011;30941;46.422;18.772;2023-05-16T12:04:08;12.57;;;7.72;;
45198;SDS011;30941;46.422;18.772;2023-05-16T12:06:35;13.82;;;6.85;;
45198;SDS011;30941;46.422;18.772;2023-05-16T12:09:02;9.20;;;6.55;;
45198;SDS011;30941;46.422;18.772;2023-05-16T12:11:35;10.05;;;7.03;;
45198;SDS011;30941;46.422;18.772;2023-05-16T12:14:01;13.82;;;7.38;;
45198;SDS011;30941;46.422;18.772;2023-05-16T12:16:27;15.05;;;6.85;;
45198;SDS011;30941;46.422;18.772;2023-05-16T12:18:52;14.18;;;6.80;;
45198;SDS011;30941;46.422;18.772;2023-05-16T12:21:18;15.57;;;7.43;;
45198;SDS011;30941;46.422;18.772;2023-05-16T12:23:43;10.85;;;7.53;;
45198;SDS011;30941;46.422;18.772;2023-05-16T12:26:09;12.95;;;6.95;;
45198;SDS011;30941;46.422;18.772;2023-05-16T12:28:34;12.50;;;7.22;;
45198;SDS011;30941;46.422;18.772;2023-05-16T12:31:02;11.02;;;7.90;;
45198;SDS011;30941;46.422;18.772;2023-05-16T12:33:28;13.73;;;7.03;;
45198;SDS011;30941;46.422;18.772;2023-05-16T12:35:53;16.05;;;6.65;;
45198;SDS011;30941;46.422;18.772;2023-05-16T12:38:19;13.95;;;6.85;;
45198;SDS011;30941;46.422;18.772;2023-05-16T12:40:45;10.65;;;6.35;;
45198;SDS011;30941;46.422;18.772;2023-05-16T12:45:49;11.80;;;7.18;;
45198;SDS011;30941;46.422;18.772;2023-05-16T12:48:16;16.35;;;7.90;;
45198;SDS011;30941;46.422;18.772;2023-05-16T12:50:42;12.48;;;6.68;;
45198;SDS011;30941;46.422;18.772;2023-05-16T12:53:10;18.17;;;6.65;;
45198;SDS011;30941;46.422;18.772;2023-05-16T12:55:37;18.08;;;7.18;;
45198;SDS011;30941;46.422;18.772;2023-05-16T12:58:03;14.73;;;7.25;;
45198;SDS011;30941;46.422;18.772;2023-05-16T13:00:28;19.00;;;7.30;;
45198;SDS011;30941;46.422;18.772;2023-05-16T13:02:53;11.73;;;7.22;;
45198;SDS011;30941;46.422;18.772;2023-05-16T13:05:19;16.75;;;7.15;;
45198;SDS011;30941;46.422;18.772;2023-05-16T13:07:47;15.38;;;7.63;;
45198;SDS011;30941;46.422;18.772;2023-05-16T13:10:16;12.07;;;7.32;;
45198;SDS011;30941;46.422;18.772;2023-05-16T13:12:42;16.40;;;8.00;;
45198;SDS011;30941;46.422;18.772;2023-05-16T13:15:08;15.35;;;7.20;;
45198;SDS011;30941;46.422;18.772;2023-05-16T13:17:34;14.30;;;7.78;;
45198;SDS011;30941;46.422;18.772;2023-05-16T13:20:00;18.77;;;7.13;;
45198;SDS011;30941;46.422;18.772;2023-05-16T13:22:27;11.45;;;7.25;;
45198;SDS011;30941;46.422;18.772;2023-05-16T13:24:52;15.55;;;7.63;;
45198;SDS011;30941;46.422;18.772;2023-05-16T13:27:18;16.35;;;8.85;;
45198;SDS011;30941;46.422;18.772;2023-05-16T13:29:43;19.55;;;7.78;;
45198;SDS011;30941;46.422;18.772;2023-05-16T13:32:09;16.17;;;8.13;;
45198;SDS011;30941;46.422;18.772;2023-05-16T13:34:34;17.65;;;8.85;;
45198;SDS011;30941;46.422;18.772;2023-05-16T13:37:00;23.50;;;8.85;;
45198;SDS011;30941;46.422;18.772;2023-05-16T13:39:25;16.92;;;9.43;;
45198;SDS011;30941;46.422;18.772;2023-05-16T13:41:51;16.15;;;8.25;;
45198;SDS011;30941;46.422;18.772;2023-05-16T13:44:16;14.55;;;7.55;;
45198;SDS011;30941;46.422;18.772;2023-05-16T13:46:42;18.75;;;8.45;;
45198;SDS011;30941;46.422;18.772;2023-05-16T13:49:08;14.00;;;8.63;;
45198;SDS011;30941;46.422;18.772;2023-05-16T13:51:33;16.40;;;8.25;;
45198;SDS011;30941;46.422;18.772;2023-05-16T13:53:58;16.45;;;8.82;;
45198;SDS011;30941;46.422;18.772;2023-05-16T13:56:24;17.52;;;8.25;;
45198;SDS011;30941;46.422;18.772;2023-05-16T13:58:50;20.17;;;8.13;;
45198;SDS011;30941;46.422;18.772;2023-05-16T14:01:15;15.05;;;7.85;;
45198;SDS011;30941;46.422;18.772;2023-05-16T14:03:41;15.98;;;9.02;;
45198;SDS011;30941;46.422;18.772;2023-05-16T14:06:06;14.32;;;7.75;;
45198;SDS011;30941;46.422;18.772;2023-05-16T14:08:32;14.82;;;7.38;;
45198;SDS011;30941;46.422;18.772;2023-05-16T14:10:57;15.70;;;7.22;;
45198;SDS011;30941;46.422;18.772;2023-05-16T14:13:22;14.10;;;7.63;;
45198;SDS011;30941;46.422;18.772;2023-05-16T14:15:48;14.43;;;7.65;;
45198;SDS011;30941;46.422;18.772;2023-05-16T14:18:13;14.27;;;6.57;;
45198;SDS011;30941;46.422;18.772;2023-05-16T14:20:39;12.00;;;6.32;;
45198;SDS011;30941;46.422;18.772;2023-05-16T14:23:04;12.73;;;7.40;;
45198;SDS011;30941;46.422;18.772;2023-05-16T14:25:29;13.35;;;7.10;;
45198;SDS011;30941;46.422;18.772;2023-05-16T14:27:55;20.55;;;7.45;;
45198;SDS011;30941;46.422;18.772;2023-05-16T14:30:21;12.85;;;6.95;;
45198;SDS011;30941;46.422;18.772;2023-05-16T14:32:46;16.05;;;7.20;;
45198;SDS011;30941;46.422;18.772;2023-05-16T14:35:11;13.82;;;7.47;;
45198;SDS011;30941;46.422;18.772;2023-05-16T14:37:37;13.95;;;7.03;;
45198;SDS011;30941;46.422;18.772;2023-05-16T14:40:02;15.48;;;6.53;;
45198;SDS011;30941;46.422;18.772;2023-05-16T14:42:30;12.07;;;7.10;;
45198;SDS011;30941;46.422;18.772;2023-05-16T14:44:55;14.32;;;7.47;;
45198;SDS011;30941;46.422;18.772;2023-05-16T14:47:20;13.57;;;7.28;;
45198;SDS011;30941;46.422;18.772;2023-05-16T14:49:46;13.48;;;7.32;;
45198;SDS011;30941;46.422;18.772;2023-05-16T14:52:11;14.18;;;7.63;;